createdAt,value
2018-03-06T00:00:56.757Z,76.90
2018-03-06T00:03:24.290Z,77.00
2018-03-06T00:05:51.842Z,77.00
2018-03-06T00:08:19.364Z,77.00
2018-03-06T00:10:46.915Z,76.90
2018-03-06T00:13:14.450Z,76.90
2018-03-06T00:15:42.005Z,76.90
2018-03-06T00:18:10.296Z,76.90
2018-03-06T00:20:37.848Z,76.90
2018-03-06T00:23:05.379Z,76.90
2018-03-06T00:25:33.701Z,77.00
2018-03-06T00:28:01.271Z,76.90
2018-03-06T00:30:28.812Z,76.90
2018-03-06T00:32:56.337Z,76.80
2018-03-06T00:35:26.811Z,77.20
2018-03-06T00:37:54.560Z,77.10
2018-03-06T00:40:22.088Z,76.80
2018-03-06T00:42:50.386Z,77.10
2018-03-06T00:45:17.940Z,77.10
2018-03-06T00:47:45.469Z,77.00
2018-03-06T00:50:13.026Z,76.90
2018-03-06T00:52:41.431Z,76.70
2018-03-06T00:55:08.986Z,77.00
2018-03-06T00:57:36.542Z,77.00
2018-03-06T01:00:04.854Z,77.10
2018-03-06T01:02:32.392Z,77.10
2018-03-06T01:04:59.965Z,77.10
2018-03-06T01:07:27.498Z,77.10
2018-03-06T01:09:55.114Z,77.10
2018-03-06T01:12:22.637Z,77.10
2018-03-06T01:14:50.161Z,77.10
2018-03-06T01:17:18.472Z,77.10
2018-03-06T01:19:46.026Z,77.10
2018-03-06T01:22:13.575Z,77.10
2018-03-06T01:24:41.104Z,77.00
2018-03-06T01:27:09.415Z,77.10
2018-03-06T01:29:36.945Z,77.10
2018-03-06T01:32:05.266Z,77.10
2018-03-06T01:34:32.831Z,77.00
2018-03-06T01:37:00.395Z,77.00
2018-03-06T01:39:27.920Z,77.20
2018-03-06T01:41:55.468Z,77.10
2018-03-06T01:44:23.000Z,77.20
2018-03-06T01:46:50.575Z,77.20
2018-03-06T01:49:18.865Z,77.20
2018-03-06T01:51:58.260Z,77.70
2018-03-06T01:54:25.794Z,77.00
2018-03-06T01:56:53.370Z,77.10
2018-03-06T01:59:20.910Z,77.20
2018-03-06T02:01:48.467Z,77.20
2018-03-06T02:04:15.998Z,77.20
2018-03-06T02:06:43.553Z,77.20
2018-03-06T02:09:11.101Z,77.10
2018-03-06T02:11:38.661Z,77.20
2018-03-06T02:14:06.965Z,77.20
2018-03-06T02:16:34.516Z,77.20
2018-03-06T02:19:02.061Z,77.20
2018-03-06T02:21:29.603Z,77.20
2018-03-06T02:23:57.895Z,77.20
2018-03-06T02:26:25.489Z,77.10
2018-03-06T02:28:54.956Z,77.20
2018-03-06T02:31:22.505Z,77.20
2018-03-06T02:33:50.044Z,77.10
2018-03-06T02:36:17.644Z,77.20
2018-03-06T02:38:45.187Z,77.20
2018-03-06T02:41:12.732Z,77.20
2018-03-06T02:43:41.630Z,77.10
2018-03-06T02:46:12.712Z,77.20
2018-03-06T02:48:40.256Z,77.10
2018-03-06T02:51:07.795Z,77.20
2018-03-06T02:53:35.781Z,77.30
2018-03-06T02:56:03.363Z,77.20
2018-03-06T02:58:30.913Z,77.30
2018-03-06T03:00:58.436Z,77.40
2018-03-06T03:03:25.981Z,77.30
2018-03-06T03:05:54.282Z,77.40
2018-03-06T03:08:21.823Z,77.40
2018-03-06T03:10:50.153Z,77.20
2018-03-06T03:13:17.701Z,77.20
2018-03-06T03:15:45.233Z,77.30
2018-03-06T03:18:12.806Z,77.30
2018-03-06T03:20:40.340Z,77.30
2018-03-06T03:23:08.649Z,77.40
2018-03-06T03:25:36.190Z,77.40
2018-03-06T03:28:03.740Z,77.20
2018-03-06T03:30:31.258Z,77.20
2018-03-06T03:32:59.593Z,77.40
2018-03-06T03:35:27.121Z,77.30
2018-03-06T03:37:55.437Z,77.30
2018-03-06T03:40:22.973Z,77.40
2018-03-06T03:42:50.523Z,77.20
2018-03-06T03:45:18.052Z,77.30
2018-03-06T03:47:45.581Z,77.30
2018-03-06T03:50:13.125Z,77.20
2018-03-06T03:52:40.652Z,77.20
2018-03-06T03:55:08.197Z,77.30
2018-03-06T03:57:36.488Z,77.40
2018-03-06T04:00:04.037Z,77.30
2018-03-06T04:02:32.324Z,77.40
2018-03-06T04:04:59.872Z,77.40
2018-03-06T04:07:27.416Z,77.40
2018-03-06T04:09:54.976Z,77.20
2018-03-06T04:12:22.495Z,77.30
2018-03-06T04:14:50.044Z,77.40
2018-03-06T04:17:17.625Z,77.40
2018-03-06T04:19:45.121Z,77.40
2018-03-06T04:22:13.415Z,77.40
2018-03-06T04:24:40.961Z,77.30
2018-03-06T04:27:09.249Z,77.50
2018-03-06T04:29:36.800Z,77.40
2018-03-06T04:32:04.333Z,77.40
2018-03-06T04:34:31.893Z,77.30
2018-03-06T04:37:00.184Z,77.30
2018-03-06T04:39:28.480Z,77.20
2018-03-06T04:41:56.018Z,77.20
2018-03-06T04:44:24.309Z,77.10
2018-03-06T04:46:51.853Z,77.10
2018-03-06T04:49:19.398Z,77.10
2018-03-06T04:51:47.709Z,77.30
2018-03-06T04:54:15.232Z,77.20
2018-03-06T04:56:43.548Z,77.40
2018-03-06T04:59:11.078Z,77.30
2018-03-06T05:01:39.384Z,77.40
2018-03-06T05:04:06.910Z,77.20
2018-03-06T05:06:35.225Z,77.90
2018-03-06T05:09:02.761Z,77.90
2018-03-06T05:11:30.313Z,77.90
2018-03-06T05:13:57.848Z,78.10
2018-03-06T05:16:25.384Z,78.00
2018-03-06T05:18:52.937Z,78.30
2018-03-06T05:21:21.213Z,78.10
2018-03-06T05:23:49.380Z,78.10
2018-03-06T05:26:16.928Z,78.20
2018-03-06T05:28:44.456Z,78.00
2018-03-06T05:31:11.984Z,78.30
2018-03-06T05:33:40.318Z,78.00
2018-03-06T05:36:07.856Z,77.90
2018-03-06T05:38:35.413Z,77.90
2018-03-06T05:41:02.935Z,77.80
2018-03-06T05:43:31.271Z,77.70
2018-03-06T05:45:58.808Z,77.60
2018-03-06T05:48:26.380Z,77.50
2018-03-06T05:50:53.959Z,77.70
2018-03-06T05:53:21.500Z,77.70
2018-03-06T05:55:49.041Z,77.70
2018-03-06T05:58:16.595Z,77.40
2018-03-06T06:00:44.128Z,77.50
2018-03-06T06:03:12.441Z,77.60
2018-03-06T06:05:39.964Z,77.60
2018-03-06T06:08:08.298Z,77.60
2018-03-06T06:10:35.831Z,77.50
2018-03-06T06:13:03.361Z,77.50
2018-03-06T06:15:31.681Z,77.40
2018-03-06T06:17:59.952Z,77.40
2018-03-06T06:20:27.488Z,77.40
2018-03-06T06:22:55.764Z,77.50
2018-03-06T06:25:23.301Z,77.50
2018-03-06T06:27:50.821Z,77.40
2018-03-06T06:30:18.357Z,77.50
2018-03-06T06:32:45.892Z,77.50
2018-03-06T06:35:14.198Z,77.60
2018-03-06T06:37:41.707Z,77.50
2018-03-06T06:40:10.033Z,77.50
2018-03-06T06:42:37.545Z,77.40
2018-03-06T06:45:05.088Z,77.70
2018-03-06T06:47:32.594Z,77.40
2018-03-06T06:50:00.120Z,77.40
2018-03-06T06:52:27.686Z,77.50
2018-03-06T06:54:55.197Z,76.90
2018-03-06T06:57:22.721Z,77.40
2018-03-06T06:59:50.256Z,77.30
2018-03-06T07:02:18.528Z,77.50
2018-03-06T07:04:46.828Z,78.30
2018-03-06T07:07:14.348Z,77.50
2018-03-06T07:09:41.864Z,77.50
2018-03-06T07:12:09.392Z,77.30
2018-03-06T07:14:37.664Z,76.50
2018-03-06T07:17:05.960Z,75.70
2018-03-06T07:19:33.463Z,75.60
2018-03-06T07:22:01.014Z,75.10
2018-03-06T07:24:28.530Z,74.40
2018-03-06T07:26:56.088Z,73.70
2018-03-06T07:29:23.592Z,73.10
2018-03-06T07:31:51.137Z,72.00
2018-03-06T07:34:18.782Z,70.30
2018-03-06T07:36:46.937Z,68.80
2018-03-06T07:39:14.472Z,68.00
2018-03-06T07:41:42.008Z,67.20
2018-03-06T07:44:09.530Z,66.20
2018-03-06T07:46:37.061Z,66.00
2018-03-06T07:49:05.342Z,67.70
2018-03-06T07:51:32.885Z,67.60
2018-03-06T07:54:01.165Z,67.40
2018-03-06T07:56:29.465Z,65.90
2018-03-06T07:58:56.995Z,65.70
2018-03-06T08:01:25.296Z,65.20
2018-03-06T08:03:52.833Z,65.10
2018-03-06T08:06:21.158Z,65.20
2018-03-06T08:08:48.689Z,65.10
2018-03-06T08:11:16.243Z,64.80
2018-03-06T08:13:43.761Z,64.60
2018-03-06T08:16:11.300Z,64.40
2018-03-06T08:18:38.842Z,63.90
2018-03-06T08:21:06.377Z,63.70
2018-03-06T08:23:33.913Z,63.20
2018-03-06T08:26:01.457Z,62.80
2018-03-06T08:28:28.997Z,62.60
2018-03-06T08:30:56.516Z,62.10
2018-03-06T08:33:24.061Z,61.40
2018-03-06T08:35:51.590Z,61.20
2018-03-06T08:38:19.121Z,61.00
2018-03-06T08:40:46.638Z,60.60
2018-03-06T08:43:14.176Z,60.20
2018-03-06T08:45:41.712Z,60.20
2018-03-06T08:48:09.241Z,59.50
2018-03-06T08:50:36.757Z,59.50
2018-03-06T08:53:04.296Z,59.20
2018-03-06T08:55:32.589Z,59.00
2018-03-06T08:58:00.890Z,58.50
2018-03-06T09:00:28.400Z,58.40
2018-03-06T09:02:55.956Z,58.30
2018-03-06T09:05:23.473Z,58.10
2018-03-06T09:07:51.021Z,58.30
2018-03-06T09:10:18.529Z,57.80
2018-03-06T09:12:46.094Z,57.40
2018-03-06T09:15:13.618Z,57.20
2018-03-06T09:17:41.154Z,57.60
2018-03-06T09:20:08.673Z,56.80
2018-03-06T09:22:36.960Z,57.30
2018-03-06T09:25:04.503Z,57.30
2018-03-06T09:27:32.020Z,57.40
2018-03-06T09:29:59.564Z,57.30
2018-03-06T09:32:27.085Z,57.10
2018-03-06T09:34:55.385Z,56.70
2018-03-06T09:37:22.913Z,56.60
2018-03-06T09:39:50.457Z,57.20
2018-03-06T09:42:17.977Z,57.60
2018-03-06T09:44:45.549Z,57.50
2018-03-06T09:47:13.066Z,57.70
2018-03-06T09:49:40.604Z,57.70
2018-03-06T09:52:08.893Z,57.80
2018-03-06T09:54:36.438Z,57.70
2018-03-06T09:57:04.717Z,57.10
2018-03-06T09:59:33.016Z,57.90
2018-03-06T10:02:00.544Z,57.80
2018-03-06T10:04:28.849Z,57.70
2018-03-06T10:06:56.406Z,57.30
2018-03-06T10:09:23.985Z,58.10
2018-03-06T10:11:51.529Z,58.00
2018-03-06T10:14:19.104Z,58.10
2018-03-06T10:16:46.658Z,57.90
2018-03-06T10:19:14.234Z,58.90
2018-03-06T10:21:41.798Z,58.40
2018-03-06T10:24:09.386Z,58.00
2018-03-06T10:26:36.954Z,58.20
2018-03-06T10:29:05.281Z,58.00
2018-03-06T10:31:32.857Z,57.90
2018-03-06T10:34:00.461Z,58.20
2018-03-06T10:36:28.018Z,58.00
2018-03-06T10:38:55.586Z,58.00
2018-03-06T10:41:23.162Z,57.70
2018-03-06T10:43:50.772Z,57.80
2018-03-06T10:46:18.332Z,57.70
2018-03-06T10:48:45.902Z,57.50
2018-03-06T10:51:14.340Z,58.40
2018-03-06T10:53:41.894Z,58.30
2018-03-06T10:56:09.474Z,58.70
2018-03-06T10:58:37.036Z,59.20
2018-03-06T11:01:04.612Z,59.60
2018-03-06T11:03:32.178Z,60.70
2018-03-06T11:05:59.720Z,60.90
2018-03-06T11:08:27.249Z,61.20
2018-03-06T11:10:54.789Z,61.20
2018-03-06T11:13:22.329Z,60.50
2018-03-06T11:15:49.932Z,60.00
2018-03-06T11:18:17.448Z,60.60
2018-03-06T11:20:45.004Z,60.40
2018-03-06T11:23:12.529Z,60.00
2018-03-06T11:25:40.075Z,60.10
2018-03-06T11:28:07.606Z,59.30
2018-03-06T11:30:35.165Z,59.10
2018-03-06T11:33:02.693Z,59.40
2018-03-06T11:35:30.213Z,58.70
2018-03-06T11:37:57.757Z,59.10
2018-03-06T11:40:25.269Z,58.60
2018-03-06T11:42:52.813Z,58.60
2018-03-06T11:45:21.104Z,58.50
2018-03-06T11:47:48.653Z,58.40
2018-03-06T11:50:16.933Z,58.70
2018-03-06T11:52:44.471Z,58.70
2018-03-06T11:55:12.758Z,58.00
2018-03-06T11:57:41.064Z,58.20
2018-03-06T12:00:08.576Z,58.00
2018-03-06T12:02:36.884Z,58.40
2018-03-06T12:05:04.405Z,57.70
2018-03-06T12:07:31.964Z,58.30
2018-03-06T12:09:59.480Z,58.10
2018-03-06T12:12:27.017Z,58.30
2018-03-06T12:14:54.536Z,57.70
2018-03-06T12:17:22.073Z,57.40
2018-03-06T12:19:49.588Z,57.30
2018-03-06T12:22:17.131Z,57.00
2018-03-06T12:24:45.415Z,56.90
2018-03-06T12:27:13.716Z,57.40
2018-03-06T12:29:41.246Z,57.40
2018-03-06T12:32:09.907Z,57.30
2018-03-06T12:34:37.429Z,57.20
2018-03-06T12:37:04.964Z,57.50
2018-03-06T12:39:32.482Z,57.30
2018-03-06T12:42:00.021Z,58.60
2018-03-06T12:44:27.537Z,57.20
2018-03-06T12:46:55.089Z,56.80
2018-03-06T12:49:22.622Z,56.90
2018-03-06T12:51:50.929Z,57.70
2018-03-06T12:54:18.464Z,57.70
2018-03-06T12:56:46.740Z,57.30
2018-03-06T12:59:15.038Z,57.30
2018-03-06T13:01:42.552Z,57.20
2018-03-06T13:04:10.080Z,57.00
2018-03-06T13:06:37.609Z,56.40
2018-03-06T13:09:05.152Z,57.10
2018-03-06T13:11:33.440Z,57.20
2018-03-06T13:14:01.037Z,57.20
2018-03-06T13:16:28.558Z,56.30
2018-03-06T13:18:56.098Z,57.70
2018-03-06T13:21:23.633Z,57.80
2018-03-06T13:23:51.173Z,58.20
2018-03-06T13:26:18.688Z,58.30
2018-03-06T13:28:46.228Z,58.60
2018-03-06T13:31:14.509Z,59.30
2018-03-06T13:33:42.812Z,59.30
2018-03-06T13:36:10.344Z,59.20
2018-03-06T13:38:38.650Z,60.30
2018-03-06T13:41:06.182Z,60.20
2018-03-06T13:43:34.185Z,60.20
2018-03-06T13:46:01.704Z,60.70
2018-03-06T13:48:30.024Z,61.80
2018-03-06T13:50:57.565Z,60.90
2018-03-06T13:53:25.086Z,61.00
2018-03-06T13:55:53.399Z,61.30
2018-03-06T13:58:20.924Z,61.10
2018-03-06T14:00:49.230Z,61.80
2018-03-06T14:03:16.896Z,61.70
2018-03-06T14:05:44.436Z,62.40
2018-03-06T14:08:11.956Z,62.50
2018-03-06T14:10:39.496Z,62.90
2018-03-06T14:13:07.013Z,62.80
2018-03-06T14:15:34.549Z,63.30
2018-03-06T14:18:02.841Z,62.90
2018-03-06T14:20:30.390Z,63.50
2018-03-06T14:22:58.676Z,63.20
2018-03-06T14:25:26.236Z,63.20
2018-03-06T14:27:53.757Z,63.60
2018-03-06T14:30:21.294Z,64.10
2018-03-06T14:32:48.809Z,63.50
2018-03-06T14:35:16.340Z,63.90
2018-03-06T14:37:43.859Z,64.10
2018-03-06T14:40:11.393Z,64.20
2018-03-06T14:42:44.021Z,64.30
2018-03-06T14:45:11.556Z,64.40
2018-03-06T14:47:39.137Z,63.30
2018-03-06T14:50:06.669Z,64.50
2018-03-06T14:52:34.180Z,64.80
2018-03-06T14:55:01.712Z,64.50
2018-03-06T14:57:29.245Z,65.10
2018-03-06T14:59:56.759Z,63.90
2018-03-06T15:02:25.059Z,64.80
2018-03-06T15:04:52.581Z,64.70
2018-03-06T15:07:20.892Z,65.50
2018-03-06T15:09:48.406Z,64.70
2018-03-06T15:12:15.940Z,64.10
2018-03-06T15:14:43.454Z,65.60
2018-03-06T15:17:11.022Z,64.90
2018-03-06T15:19:38.551Z,64.50
2018-03-06T15:22:06.852Z,65.10
2018-03-06T15:24:34.364Z,64.90
2018-03-06T15:27:01.901Z,65.40
2018-03-06T15:29:29.481Z,64.50
2018-03-06T15:31:57.018Z,65.40
2018-03-06T15:34:24.532Z,65.90
2018-03-06T15:36:52.105Z,65.40
2018-03-06T15:39:19.600Z,65.20
2018-03-06T15:41:47.132Z,65.40
2018-03-06T15:44:14.645Z,65.90
2018-03-06T15:46:42.184Z,65.90
2018-03-06T15:49:09.705Z,66.60
2018-03-06T15:51:37.245Z,66.30
2018-03-06T15:54:04.803Z,66.40
2018-03-06T15:56:32.318Z,66.20
2018-03-06T15:58:59.853Z,66.70
2018-03-06T16:01:27.373Z,67.10
2018-03-06T16:03:54.912Z,67.00
2018-03-06T16:06:23.210Z,67.20
2018-03-06T16:08:50.747Z,67.10
2018-03-06T16:11:19.029Z,67.60
2018-03-06T16:13:47.337Z,67.70
2018-03-06T16:16:14.864Z,67.60
2018-03-06T16:18:43.364Z,67.60
2018-03-06T16:21:10.913Z,67.60
2018-03-06T16:23:39.220Z,67.20
2018-03-06T16:26:06.736Z,67.20
2018-03-06T16:28:35.041Z,68.30
2018-03-06T16:31:02.562Z,68.10
2018-03-06T16:33:30.112Z,68.10
2018-03-06T16:35:57.633Z,68.00
2018-03-06T16:38:25.195Z,68.10
2018-03-06T16:40:52.716Z,67.20
2018-03-06T16:43:20.260Z,67.90
2018-03-06T16:45:48.540Z,68.70
2018-03-06T16:48:16.080Z,68.70
2018-03-06T16:50:44.365Z,69.20
2018-03-06T16:53:11.898Z,68.70
2018-03-06T16:55:39.434Z,69.00
2018-03-06T16:58:06.981Z,68.60
2018-03-06T17:00:34.503Z,69.00
2018-03-06T17:03:02.055Z,69.10
2018-03-06T17:05:29.567Z,68.60
2018-03-06T17:07:57.092Z,69.00
2018-03-06T17:10:25.388Z,69.50
2018-03-06T17:12:52.900Z,69.40
2018-03-06T17:15:21.205Z,69.00
2018-03-06T17:17:48.728Z,69.10
2018-03-06T17:20:17.029Z,69.70
2018-03-06T17:22:44.544Z,69.60
2018-03-06T17:25:12.081Z,69.80
2018-03-06T17:27:39.594Z,69.70
2018-03-06T17:30:07.892Z,69.90
2018-03-06T17:32:35.408Z,69.80
2018-03-06T17:35:03.705Z,69.70
2018-03-06T17:37:31.988Z,69.70
2018-03-06T17:39:59.525Z,69.60
2018-03-06T17:42:27.806Z,69.90
2018-03-06T17:44:55.352Z,69.80
2018-03-06T17:47:23.636Z,70.10
2018-03-06T17:49:51.969Z,69.90
2018-03-06T17:52:19.485Z,69.90
2018-03-06T17:54:47.009Z,69.90
2018-03-06T17:57:14.526Z,70.20
2018-03-06T17:59:42.065Z,70.20
2018-03-06T18:02:09.580Z,69.70
2018-03-06T18:04:37.105Z,70.10
2018-03-06T18:07:04.618Z,70.30
2018-03-06T18:09:32.908Z,70.50
2018-03-06T18:12:00.424Z,70.40
2018-03-06T18:14:27.957Z,70.30
2018-03-06T18:16:55.461Z,70.10
2018-03-06T18:19:23.757Z,70.40
2018-03-06T18:21:51.261Z,70.20
2018-03-06T18:24:18.792Z,70.10
2018-03-06T18:26:46.317Z,70.00
2018-03-06T18:29:14.605Z,70.10
2018-03-06T18:31:42.110Z,70.10
2018-03-06T18:34:09.642Z,70.20
2018-03-06T18:36:37.248Z,70.20
2018-03-06T18:39:05.581Z,70.70
2018-03-06T18:41:33.096Z,69.70
2018-03-06T18:44:01.393Z,70.70
2018-03-06T18:46:28.905Z,71.30
2018-03-06T18:48:56.432Z,70.80
2018-03-06T18:51:23.933Z,70.50
2018-03-06T18:53:51.452Z,70.80
2018-03-06T18:56:18.990Z,70.80
2018-03-06T18:58:46.518Z,70.60
2018-03-06T19:04:24.186Z,69.90
2018-03-06T19:07:08.248Z,70.90
2018-03-06T19:09:35.784Z,70.30
2018-03-06T19:12:03.292Z,70.60
2018-03-06T19:14:31.598Z,71.50
2018-03-06T19:16:59.109Z,70.60
2018-03-06T19:19:26.633Z,70.80
2018-03-06T19:21:54.243Z,70.70
2018-03-06T19:24:21.738Z,70.90
2018-03-06T19:26:49.268Z,70.90
2018-03-06T19:29:17.545Z,70.70
2018-03-06T19:31:45.072Z,70.60
2018-03-06T19:34:12.604Z,70.70
2018-03-06T19:36:40.133Z,70.60
2018-03-06T19:39:07.669Z,70.90
2018-03-06T19:41:36.227Z,70.60
2018-03-06T19:44:03.741Z,70.60
2018-03-06T19:46:33.293Z,70.30
2018-03-06T19:49:03.728Z,70.70
2018-03-06T19:54:06.596Z,70.90
2018-03-06T19:56:34.120Z,70.80
2018-03-06T19:59:01.636Z,71.10
2018-03-06T20:01:29.785Z,71.00
2018-03-06T20:03:57.744Z,71.20
2018-03-06T20:06:25.986Z,71.00
2018-03-06T20:08:53.503Z,70.80
2018-03-06T20:11:21.036Z,71.10
2018-03-06T20:13:48.560Z,70.70
2018-03-06T20:16:16.122Z,71.10
2018-03-06T20:18:43.650Z,71.10
2018-03-06T20:21:11.184Z,70.90
2018-03-06T20:23:38.716Z,71.20
2018-03-06T20:26:06.265Z,70.90
2018-03-06T20:28:33.785Z,71.00
2018-03-06T20:31:06.926Z,71.00
2018-03-06T20:33:35.053Z,71.20
2018-03-06T20:36:02.633Z,71.20
2018-03-06T20:38:35.886Z,71.20
2018-03-06T20:41:03.412Z,71.10
2018-03-06T20:43:30.925Z,71.10
2018-03-06T20:46:04.045Z,71.10
2018-03-06T20:48:31.560Z,71.10
2018-03-06T20:50:59.877Z,71.40
2018-03-06T20:56:23.597Z,70.90
2018-03-06T20:58:51.145Z,70.90
2018-03-06T21:01:18.673Z,71.30
2018-03-06T21:03:46.182Z,71.20
2018-03-06T21:06:13.708Z,71.30
2018-03-06T21:08:41.217Z,71.30
2018-03-06T21:11:09.525Z,71.30
2018-03-06T21:13:37.045Z,71.30
2018-03-06T21:16:04.582Z,71.30
2018-03-06T21:18:32.108Z,71.50
2018-03-06T21:20:59.632Z,71.60
2018-03-06T21:23:27.139Z,71.40
2018-03-06T21:25:54.670Z,71.50
2018-03-06T21:28:22.192Z,71.70
2018-03-06T21:30:49.696Z,71.70
2018-03-06T21:33:17.990Z,71.40
2018-03-06T21:35:45.497Z,71.40
2018-03-06T21:38:13.822Z,71.50
2018-03-06T21:40:41.373Z,71.50
2018-03-06T21:43:08.901Z,71.50
2018-03-06T21:45:36.414Z,71.50
2018-03-06T21:48:03.952Z,71.40
2018-03-06T21:50:31.461Z,71.60
2018-03-06T21:52:59.753Z,71.70
2018-03-06T21:58:01.204Z,71.80
2018-03-06T22:00:29.509Z,71.70
2018-03-06T22:02:57.032Z,72.40
2018-03-06T22:05:25.344Z,71.80
2018-03-06T22:07:52.881Z,71.80
2018-03-06T22:10:20.392Z,71.70
2018-03-06T22:12:47.920Z,71.70
2018-03-06T22:15:15.433Z,71.80
2018-03-06T22:17:43.733Z,72.00
2018-03-06T22:20:11.260Z,71.90
2018-03-06T22:22:38.905Z,72.00
2018-03-06T22:25:06.472Z,72.00
2018-03-06T22:27:34.789Z,71.80
2018-03-06T22:30:02.302Z,71.80
2018-03-06T22:32:29.829Z,71.90
2018-03-06T22:34:57.333Z,72.00
2018-03-06T22:37:24.865Z,72.00
2018-03-06T22:42:25.368Z,72.10
2018-03-06T22:44:52.980Z,71.80
2018-03-06T22:47:20.508Z,72.00
2018-03-06T22:49:48.072Z,71.30
2018-03-06T22:52:15.605Z,71.70
2018-03-06T22:54:43.116Z,71.80
2018-03-06T22:57:10.645Z,71.90
2018-03-06T22:59:38.160Z,72.00
2018-03-06T23:02:06.457Z,72.30
2018-03-06T23:04:33.964Z,72.20
2018-03-06T23:07:01.493Z,72.10
2018-03-06T23:09:30.924Z,72.20
2018-03-06T23:12:01.410Z,72.20
2018-03-06T23:14:28.973Z,72.20
2018-03-06T23:16:56.529Z,72.30
2018-03-06T23:19:24.043Z,72.30
2018-03-06T23:21:52.344Z,72.30
2018-03-06T23:24:19.844Z,72.30
2018-03-06T23:26:47.376Z,72.30
2018-03-06T23:29:14.944Z,72.00
2018-03-06T23:31:42.488Z,72.40
2018-03-06T23:34:10.002Z,72.50
2018-03-06T23:36:37.535Z,72.30
2018-03-06T23:39:05.041Z,72.40
2018-03-06T23:41:32.545Z,72.40
2018-03-06T23:44:00.074Z,72.50
2018-03-06T23:46:27.581Z,72.50
2018-03-06T23:48:55.113Z,72.50
2018-03-06T23:51:22.628Z,72.50
2018-03-06T23:53:50.160Z,72.30
2018-03-06T23:56:17.672Z,72.40
2018-03-06T23:58:45.221Z,72.30
